sensor_id;sensor_type;location;lat;lon;timestamp;P1;durP1;ratioP1;P2;durP2;ratioP2
14171;SDS011;7165;52.388;4.928;2023-03-17T01:32:17;5.43;;;3.88;;
14171;SDS011;7165;52.388;4.928;2023-03-17T01:34:44;4.40;;;4.00;;
14171;SDS011;7165;52.388;4.928;2023-03-17T01:37:12;4.93;;;4.53;;
14171;SDS011;7165;52.388;4.928;2023-03-17T01:39:39;4.20;;;3.90;;
14171;SDS011;7165;52.388;4.928;2023-03-17T01:42:07;4.72;;;4.32;;
14171;SDS011;7165;52.388;4.928;2023-03-17T01:44:34;4.35;;;3.95;;
14171;SDS011;7165;52.388;4.928;2023-03-17T01:47:01;5.25;;;4.30;;
14171;SDS011;7165;52.388;4.928;2023-03-17T01:49:28;4.45;;;3.80;;
14171;SDS011;7165;52.388;4.928;2023-03-17T01:52:01;5.68;;;4.25;;
14171;SDS011;7165;52.388;4.928;2023-03-17T01:54:34;4.80;;;4.20;;
14171;SDS011;7165;52.388;4.928;2023-03-17T01:57:06;4.28;;;3.97;;
14171;SDS011;7165;52.388;4.928;2023-03-17T01:59:38;3.97;;;3.67;;
14171;SDS011;7165;52.388;4.928;2023-03-17T02:02:10;4.63;;;4.13;;
14171;SDS011;7165;52.388;4.928;2023-03-17T02:04:42;4.22;;;3.92;;
14171;SDS011;7165;52.388;4.928;2023-03-17T02:07:08;4.88;;;4.00;;
14171;SDS011;7165;52.388;4.928;2023-03-17T02:09:37;3.80;;;3.47;;
14171;SDS011;7165;52.388;4.928;2023-03-17T02:12:04;6.05;;;4.15;;
14171;SDS011;7165;52.388;4.928;2023-03-17T02:14:33;4.25;;;3.92;;
14171;SDS011;7165;52.388;4.928;2023-03-17T02:17:00;4.25;;;3.90;;
14171;SDS011;7165;52.388;4.928;2023-03-17T02:19:27;4.22;;;3.83;;
14171;SDS011;7165;52.388;4.928;2023-03-17T02:21:56;4.40;;;4.00;;
14171;SDS011;7165;52.388;4.928;2023-03-17T02:24:26;4.47;;;4.07;;
14171;SDS011;7165;52.388;4.928;2023-03-17T02:26:58;5.07;;;3.92;;
14171;SDS011;7165;52.388;4.928;2023-03-17T02:29:30;4.88;;;3.63;;
14171;SDS011;7165;52.388;4.928;2023-03-17T02:31:58;4.32;;;3.80;;
14171;SDS011;7165;52.388;4.928;2023-03-17T02:34:25;5.13;;;4.05;;
14171;SDS011;7165;52.388;4.928;2023-03-17T02:36:52;4.30;;;3.90;;
14171;SDS011;7165;52.388;4.928;2023-03-17T02:39:20;4.05;;;3.72;;
14171;SDS011;7165;52.388;4.928;2023-03-17T02:41:46;5.28;;;4.20;;
14171;SDS011;7165;52.388;4.928;2023-03-17T02:44:13;4.15;;;3.85;;
14171;SDS011;7165;52.388;4.928;2023-03-17T02:46:40;4.07;;;3.50;;
14171;SDS011;7165;52.388;4.928;2023-03-17T02:49:07;4.03;;;3.63;;
14171;SDS011;7165;52.388;4.928;2023-03-17T02:51:34;3.83;;;3.50;;
14171;SDS011;7165;52.388;4.928;2023-03-17T02:54:01;3.67;;;3.38;;
14171;SDS011;7165;52.388;4.928;2023-03-17T02:56:29;3.85;;;3.55;;
14171;SDS011;7165;52.388;4.928;2023-03-17T02:58:56;4.20;;;3.80;;
14171;SDS011;7165;52.388;4.928;2023-03-17T03:01:23;4.00;;;3.70;;
14171;SDS011;7165;52.388;4.928;2023-03-17T03:03:50;4.05;;;3.58;;
14171;SDS011;7165;52.388;4.928;2023-03-17T03:06:17;5.30;;;4.05;;
14171;SDS011;7165;52.388;4.928;2023-03-17T03:08:44;3.53;;;3.22;;
14171;SDS011;7165;52.388;4.928;2023-03-17T03:11:11;3.97;;;3.67;;
14171;SDS011;7165;52.388;4.928;2023-03-17T03:13:39;3.97;;;3.53;;
14171;SDS011;7165;52.388;4.928;2023-03-17T03:16:06;4.03;;;3.38;;
14171;SDS011;7165;52.388;4.928;2023-03-17T03:18:33;4.22;;;3.83;;
14171;SDS011;7165;52.388;4.928;2023-03-17T03:21:01;3.85;;;3.53;;
14171;SDS011;7165;52.388;4.928;2023-03-17T03:23:29;5.35;;;4.57;;
14171;SDS011;7165;52.388;4.928;2023-03-17T03:25:56;5.15;;;3.65;;
14171;SDS011;7165;52.388;4.928;2023-03-17T03:28:22;5.40;;;3.90;;
14171;SDS011;7165;52.388;4.928;2023-03-17T03:30:51;4.43;;;4.03;;
14171;SDS011;7165;52.388;4.928;2023-03-17T03:33:17;5.45;;;4.30;;
14171;SDS011;7165;52.388;4.928;2023-03-17T03:35:44;4.40;;;4.03;;
14171;SDS011;7165;52.388;4.928;2023-03-17T03:38:11;3.60;;;3.30;;
14171;SDS011;7165;52.388;4.928;2023-03-17T03:40:38;3.85;;;3.60;;
14171;SDS011;7165;52.388;4.928;2023-03-17T03:43:05;4.45;;;4.05;;
14171;SDS011;7165;52.388;4.928;2023-03-17T03:45:32;4.30;;;3.85;;
14171;SDS011;7165;52.388;4.928;2023-03-17T03:48:00;4.25;;;3.85;;
14171;SDS011;7165;52.388;4.928;2023-03-17T03:50:27;4.00;;;3.65;;
14171;SDS011;7165;52.388;4.928;2023-03-17T03:52:53;4.25;;;3.85;;
14171;SDS011;7165;52.388;4.928;2023-03-17T03:55:20;4.20;;;3.90;;
14171;SDS011;7165;52.388;4.928;2023-03-17T03:57:47;3.92;;;3.70;;
14171;SDS011;7165;52.388;4.928;2023-03-17T04:00:14;6.05;;;4.43;;
14171;SDS011;7165;52.388;4.928;2023-03-17T04:02:41;4.68;;;4.30;;
14171;SDS011;7165;52.388;4.928;2023-03-17T04:05:10;3.25;;;3.03;;
14171;SDS011;7165;52.388;4.928;2023-03-17T04:07:37;3.92;;;3.58;;
14171;SDS011;7165;52.388;4.928;2023-03-17T04:10:05;4.55;;;4.15;;
14171;SDS011;7165;52.388;4.928;2023-03-17T04:12:32;5.03;;;4.63;;
14171;SDS011;7165;52.388;4.928;2023-03-17T04:14:59;3.72;;;3.42;;
14171;SDS011;7165;52.388;4.928;2023-03-17T04:17:26;4.47;;;4.07;;
14171;SDS011;7165;52.388;4.928;2023-03-17T04:19:53;5.40;;;4.57;;
14171;SDS011;7165;52.388;4.928;2023-03-17T04:22:21;4.97;;;4.13;;
14171;SDS011;7165;52.388;4.928;2023-03-17T04:24:48;5.63;;;4.22;;
14171;SDS011;7165;52.388;4.928;2023-03-17T04:27:15;3.70;;;3.40;;
14171;SDS011;7165;52.388;4.928;2023-03-17T04:29:42;4.35;;;3.95;;
14171;SDS011;7165;52.388;4.928;2023-03-17T04:32:09;4.75;;;3.60;;
14171;SDS011;7165;52.388;4.928;2023-03-17T04:34:39;4.30;;;3.95;;
14171;SDS011;7165;52.388;4.928;2023-03-17T04:37:06;4.10;;;3.70;;
14171;SDS011;7165;52.388;4.928;2023-03-17T04:39:35;4.20;;;3.90;;
14171;SDS011;7165;52.388;4.928;2023-03-17T04:42:02;4.85;;;3.75;;
14171;SDS011;7165;52.388;4.928;2023-03-17T04:44:29;6.03;;;3.92;;
14171;SDS011;7165;52.388;4.928;2023-03-17T04:46:56;4.40;;;3.97;;
14171;SDS011;7165;52.388;4.928;2023-03-17T04:49:23;5.00;;;3.63;;
14171;SDS011;7165;52.388;4.928;2023-03-17T04:51:50;3.90;;;3.55;;
14171;SDS011;7165;52.388;4.928;2023-03-17T04:54:17;3.90;;;3.60;;
14171;SDS011;7165;52.388;4.928;2023-03-17T04:56:45;4.65;;;4.28;;
14171;SDS011;7165;52.388;4.928;2023-03-17T04:59:11;4.30;;;3.90;;
14171;SDS011;7165;52.388;4.928;2023-03-17T05:01:38;5.13;;;4.15;;
14171;SDS011;7165;52.388;4.928;2023-03-17T05:04:05;4.95;;;4.55;;
14171;SDS011;7165;52.388;4.928;2023-03-17T05:06:32;4.43;;;4.03;;
14171;SDS011;7165;52.388;4.928;2023-03-17T05:08:59;3.97;;;3.45;;
14171;SDS011;7165;52.388;4.928;2023-03-17T05:11:26;4.43;;;4.13;;
14171;SDS011;7165;52.388;4.928;2023-03-17T05:13:54;3.90;;;3.60;;
14171;SDS011;7165;52.388;4.928;2023-03-17T05:16:21;3.95;;;3.65;;
14171;SDS011;7165;52.388;4.928;2023-03-17T05:18:48;4.13;;;3.70;;
14171;SDS011;7165;52.388;4.928;2023-03-17T05:21:15;4.00;;;3.70;;
14171;SDS011;7165;52.388;4.928;2023-03-17T05:23:42;4.38;;;3.97;;
14171;SDS011;7165;52.388;4.928;2023-03-17T05:26:09;5.78;;;4.40;;
14171;SDS011;7165;52.388;4.928;2023-03-17T05:28:35;3.90;;;3.42;;
14171;SDS011;7165;52.388;4.928;2023-03-17T05:31:03;4.75;;;3.83;;
14171;SDS011;7165;52.388;4.928;2023-03-17T05:33:30;4.22;;;3.85;;
14171;SDS011;7165;52.388;4.928;2023-03-17T05:35:57;3.85;;;3.55;;
14171;SDS011;7165;52.388;4.928;2023-03-17T05:38:24;5.53;;;4.03;;
14171;SDS011;7165;52.388;4.928;2023-03-17T05:40:51;4.53;;;3.95;;
14171;SDS011;7165;52.388;4.928;2023-03-17T05:43:17;4.97;;;4.00;;
14171;SDS011;7165;52.388;4.928;2023-03-17T05:45:44;4.53;;;4.13;;
14171;SDS011;7165;52.388;4.928;2023-03-17T05:48:13;3.67;;;3.47;;
14171;SDS011;7165;52.388;4.928;2023-03-17T05:50:40;4.22;;;3.90;;
14171;SDS011;7165;52.388;4.928;2023-03-17T05:53:06;4.40;;;3.75;;
14171;SDS011;7165;52.388;4.928;2023-03-17T05:55:33;3.92;;;3.60;;
14171;SDS011;7165;52.388;4.928;2023-03-17T05:58:00;4.00;;;3.70;;
14171;SDS011;7165;52.388;4.928;2023-03-17T06:00:28;7.03;;;3.58;;
14171;SDS011;7165;52.388;4.928;2023-03-17T06:02:55;5.47;;;3.55;;
14171;SDS011;7165;52.388;4.928;2023-03-17T06:05:23;4.63;;;4.10;;
14171;SDS011;7165;52.388;4.928;2023-03-17T06:07:50;5.88;;;3.92;;
14171;SDS011;7165;52.388;4.928;2023-03-17T06:10:17;3.38;;;3.17;;
14171;SDS011;7165;52.388;4.928;2023-03-17T06:12:44;4.15;;;3.80;;
14171;SDS011;7165;52.388;4.928;2023-03-17T06:15:10;3.90;;;3.33;;
14171;SDS011;7165;52.388;4.928;2023-03-17T06:17:37;3.28;;;3.08;;
14171;SDS011;7165;52.388;4.928;2023-03-17T06:20:04;4.35;;;3.95;;
14171;SDS011;7165;52.388;4.928;2023-03-17T06:22:32;3.88;;;3.55;;
14171;SDS011;7165;52.388;4.928;2023-03-17T06:24:59;4.55;;;3.55;;
14171;SDS011;7165;52.388;4.928;2023-03-17T06:27:26;3.92;;;3.55;;
14171;SDS011;7165;52.388;4.928;2023-03-17T06:29:52;5.40;;;3.97;;
14171;SDS011;7165;52.388;4.928;2023-03-17T06:32:19;4.75;;;3.50;;
14171;SDS011;7165;52.388;4.928;2023-03-17T06:34:46;4.05;;;3.65;;
14171;SDS011;7165;52.388;4.928;2023-03-17T06:37:12;4.15;;;3.75;;
14171;SDS011;7165;52.388;4.928;2023-03-17T06:39:41;6.38;;;4.30;;
14171;SDS011;7165;52.388;4.928;2023-03-17T06:42:09;4.00;;;3.65;;
14171;SDS011;7165;52.388;4.928;2023-03-17T06:44:36;3.67;;;3.38;;
14171;SDS011;7165;52.388;4.928;2023-03-17T06:47:03;5.75;;;3.90;;
14171;SDS011;7165;52.388;4.928;2023-03-17T06:49:30;3.95;;;3.60;;
14171;SDS011;7165;52.388;4.928;2023-03-17T06:51:56;4.18;;;3.72;;
14171;SDS011;7165;52.388;4.928;2023-03-17T06:54:23;3.67;;;3.33;;
14171;SDS011;7165;52.388;4.928;2023-03-17T06:56:52;4.05;;;3.65;;
14171;SDS011;7165;52.388;4.928;2023-03-17T06:59:18;5.22;;;3.85;;
14171;SDS011;7165;52.388;4.928;2023-03-17T07:01:45;5.55;;;3.95;;
14171;SDS011;7165;52.388;4.928;2023-03-17T07:04:12;3.78;;;3.45;;
14171;SDS011;7165;52.388;4.928;2023-03-17T07:06:40;4.13;;;3.50;;
14171;SDS011;7165;52.388;4.928;2023-03-17T07:09:08;4.43;;;3.88;;
14171;SDS011;7165;52.388;4.928;2023-03-17T07:11:35;4.85;;;4.43;;
14171;SDS011;7165;52.388;4.928;2023-03-17T07:14:03;4.15;;;3.58;;
14171;SDS011;7165;52.388;4.928;2023-03-17T07:16:30;3.67;;;3.05;;
14171;SDS011;7165;52.388;4.928;2023-03-17T07:18:57;6.13;;;3.63;;
14171;SDS011;7165;52.388;4.928;2023-03-17T07:21:25;4.07;;;3.78;;
14171;SDS011;7165;52.388;4.928;2023-03-17T07:23:52;4.15;;;3.78;;
14171;SDS011;7165;52.388;4.928;2023-03-17T07:26:19;4.13;;;3.67;;
14171;SDS011;7165;52.388;4.928;2023-03-17T07:28:45;4.38;;;3.80;;
14171;SDS011;7165;52.388;4.928;2023-03-17T07:31:13;4.88;;;3.72;;
14171;SDS011;7165;52.388;4.928;2023-03-17T07:33:40;4.18;;;3.78;;
14171;SDS011;7165;52.388;4.928;2023-03-17T07:36:07;4.18;;;3.42;;
14171;SDS011;7165;52.388;4.928;2023-03-17T07:38:34;4.00;;;3.63;;
14171;SDS011;7165;52.388;4.928;2023-03-17T07:41:01;3.83;;;3.53;;
14171;SDS011;7165;52.388;4.928;2023-03-17T07:43:28;7.93;;;4.63;;
14171;SDS011;7165;52.388;4.928;2023-03-17T07:45:55;3.95;;;3.65;;
14171;SDS011;7165;52.388;4.928;2023-03-17T07:48:24;4.88;;;4.00;;
14171;SDS011;7165;52.388;4.928;2023-03-17T07:50:50;4.50;;;4.00;;
14171;SDS011;7165;52.388;4.928;2023-03-17T07:53:17;4.47;;;3.78;;
14171;SDS011;7165;52.388;4.928;2023-03-17T07:55:44;4.22;;;3.75;;
14171;SDS011;7165;52.388;4.928;2023-03-17T07:58:11;4.97;;;4.53;;
14171;SDS011;7165;52.388;4.928;2023-03-17T08:00:37;7.20;;;3.83;;
14171;SDS011;7165;52.388;4.928;2023-03-17T08:03:04;5.63;;;3.85;;
14171;SDS011;7165;52.388;4.928;2023-03-17T08:05:32;4.78;;;3.85;;
14171;SDS011;7165;52.388;4.928;2023-03-17T08:07:59;3.47;;;3.17;;
14171;SDS011;7165;52.388;4.928;2023-03-17T08:10:26;4.57;;;4.13;;
14171;SDS011;7165;52.388;4.928;2023-03-17T08:12:52;4.90;;;3.90;;
14171;SDS011;7165;52.388;4.928;2023-03-17T08:15:19;4.45;;;4.05;;
14171;SDS011;7165;52.388;4.928;2023-03-17T08:17:46;4.90;;;3.75;;
14171;SDS011;7165;52.388;4.928;2023-03-17T08:20:13;4.50;;;4.07;;
14171;SDS011;7165;52.388;4.928;2023-03-17T08:22:41;4.82;;;4.32;;
14171;SDS011;7165;52.388;4.928;2023-03-17T08:25:08;4.18;;;3.88;;
14171;SDS011;7165;52.388;4.928;2023-03-17T08:27:35;4.32;;;3.90;;
14171;SDS011;7165;52.388;4.928;2023-03-17T08:30:02;5.20;;;4.47;;
14171;SDS011;7165;52.388;4.928;2023-03-17T08:32:30;5.55;;;4.55;;
14171;SDS011;7165;52.388;4.928;2023-03-17T08:34:57;4.55;;;4.15;;
14171;SDS011;7165;52.388;4.928;2023-03-17T08:37:24;5.68;;;4.45;;
14171;SDS011;7165;52.388;4.928;2023-03-17T08:39:52;5.15;;;3.95;;
14171;SDS011;7165;52.388;4.928;2023-03-17T08:42:19;4.03;;;3.72;;
14171;SDS011;7165;52.388;4.928;2023-03-17T08:44:46;5.78;;;4.30;;
14171;SDS011;7165;52.388;4.928;2023-03-17T10:51:00;6.78;;;6.03;;
14171;SDS011;7165;52.388;4.928;2023-03-17T10:53:35;7.20;;;6.50;;
14171;SDS011;7165;52.388;4.928;2023-03-17T10:56:08;9.05;;;7.75;;
14171;SDS011;7165;52.388;4.928;2023-03-17T10:58:36;7.63;;;6.93;;
14171;SDS011;7165;52.388;4.928;2023-03-17T11:01:06;7.97;;;6.63;;
14171;SDS011;7165;52.388;4.928;2023-03-17T11:03:41;7.75;;;6.93;;
14171;SDS011;7165;52.388;4.928;2023-03-17T11:06:09;7.63;;;6.60;;
14171;SDS011;7165;52.388;4.928;2023-03-17T11:08:38;9.23;;;6.78;;
14171;SDS011;7165;52.388;4.928;2023-03-17T11:51:48;8.55;;;7.00;;
14171;SDS011;7165;52.388;4.928;2023-03-17T11:54:25;7.15;;;6.40;;
14171;SDS011;7165;52.388;4.928;2023-03-17T11:57:03;8.00;;;6.45;;
14171;SDS011;7165;52.388;4.928;2023-03-17T11:59:36;8.80;;;7.35;;
14171;SDS011;7165;52.388;4.928;2023-03-17T12:02:11;12.48;;;7.72;;
14171;SDS011;7165;52.388;4.928;2023-03-17T12:04:47;8.63;;;7.53;;
14171;SDS011;7165;52.388;4.928;2023-03-17T12:07:19;7.15;;;6.53;;
14171;SDS011;7165;52.388;4.928;2023-03-17T12:09:53;8.48;;;7.38;;
14171;SDS011;7165;52.388;4.928;2023-03-17T12:12:29;7.35;;;6.65;;
14171;SDS011;7165;52.388;4.928;2023-03-17T12:14:59;9.75;;;7.07;;
14171;SDS011;7165;52.388;4.928;2023-03-17T12:50:29;8.23;;;5.90;;
14171;SDS011;7165;52.388;4.928;2023-03-17T12:53:18;8.30;;;6.28;;
14171;SDS011;7165;52.388;4.928;2023-03-17T12:55:51;8.63;;;6.75;;
14171;SDS011;7165;52.388;4.928;2023-03-17T12:58:24;8.45;;;6.20;;
14171;SDS011;7165;52.388;4.928;2023-03-17T13:00:59;6.68;;;6.03;;
14171;SDS011;7165;52.388;4.928;2023-03-17T13:03:36;6.45;;;5.85;;
14171;SDS011;7165;52.388;4.928;2023-03-17T13:06:21;7.90;;;7.10;;
14171;SDS011;7165;52.388;4.928;2023-03-17T13:08:50;6.72;;;6.00;;
14171;SDS011;7165;52.388;4.928;2023-03-17T13:11:20;8.35;;;6.85;;
14171;SDS011;7165;52.388;4.928;2023-03-17T13:14:05;6.93;;;6.30;;
14171;SDS011;7165;52.388;4.928;2023-03-17T13:16:42;6.60;;;5.95;;
14171;SDS011;7165;52.388;4.928;2023-03-17T13:19:16;9.40;;;7.15;;
14171;SDS011;7165;52.388;4.928;2023-03-17T13:21:48;7.07;;;6.40;;
14171;SDS011;7165;52.388;4.928;2023-03-17T13:27:09;7.43;;;6.70;;
14171;SDS011;7165;52.388;4.928;2023-03-17T13:38:22;7.35;;;6.65;;
14171;SDS011;7165;52.388;4.928;2023-03-17T13:41:01;8.50;;;7.70;;
14171;SDS011;7165;52.388;4.928;2023-03-17T13:43:47;8.48;;;7.75;;
14171;SDS011;7165;52.388;4.928;2023-03-17T13:46:24;8.25;;;7.03;;
14171;SDS011;7165;52.388;4.928;2023-03-17T13:48:56;9.35;;;7.32;;
14171;SDS011;7165;52.388;4.928;2023-03-17T13:51:30;8.52;;;7.00;;
14171;SDS011;7165;52.388;4.928;2023-03-17T13:54:05;9.48;;;7.57;;
14171;SDS011;7165;52.388;4.928;2023-03-17T13:56:45;8.00;;;6.93;;
14171;SDS011;7165;52.388;4.928;2023-03-17T13:59:13;7.65;;;6.95;;
14171;SDS011;7165;52.388;4.928;2023-03-17T14:01:42;11.02;;;8.77;;
14171;SDS011;7165;52.388;4.928;2023-03-17T14:04:19;10.43;;;7.97;;
14171;SDS011;7165;52.388;4.928;2023-03-17T14:06:48;8.68;;;7.45;;
14171;SDS011;7165;52.388;4.928;2023-03-17T14:09:22;10.05;;;8.05;;
14171;SDS011;7165;52.388;4.928;2023-03-17T14:11:56;8.07;;;7.25;;
14171;SDS011;7165;52.388;4.928;2023-03-17T14:14:27;10.45;;;7.03;;
14171;SDS011;7165;52.388;4.928;2023-03-17T14:17:03;8.05;;;7.07;;
14171;SDS011;7165;52.388;4.928;2023-03-17T14:39:38;7.80;;;7.00;;
14171;SDS011;7165;52.388;4.928;2023-03-17T14:42:09;9.30;;;7.40;;
14171;SDS011;7165;52.388;4.928;2023-03-17T14:44:37;9.10;;;8.20;;
14171;SDS011;7165;52.388;4.928;2023-03-17T14:47:04;10.90;;;8.00;;
14171;SDS011;7165;52.388;4.928;2023-03-17T14:49:38;10.93;;;9.05;;
14171;SDS011;7165;52.388;4.928;2023-03-17T14:52:14;10.23;;;7.65;;
14171;SDS011;7165;52.388;4.928;2023-03-17T14:54:47;8.65;;;7.80;;
14171;SDS011;7165;52.388;4.928;2023-03-17T14:57:16;8.15;;;7.32;;
14171;SDS011;7165;52.388;4.928;2023-03-17T15:02:21;8.73;;;7.93;;
14171;SDS011;7165;52.388;4.928;2023-03-17T15:04:54;9.88;;;7.65;;
14171;SDS011;7165;52.388;4.928;2023-03-17T15:07:30;8.07;;;7.30;;
14171;SDS011;7165;52.388;4.928;2023-03-17T15:10:01;10.02;;;7.90;;
14171;SDS011;7165;52.388;4.928;2023-03-17T15:12:29;9.85;;;7.90;;
14171;SDS011;7165;52.388;4.928;2023-03-17T15:14:57;9.32;;;7.47;;
14171;SDS011;7165;52.388;4.928;2023-03-17T15:17:27;8.82;;;7.95;;
14171;SDS011;7165;52.388;4.928;2023-03-17T15:19:59;8.73;;;7.82;;
14171;SDS011;7165;52.388;4.928;2023-03-17T16:01:52;10.25;;;8.20;;
14171;SDS011;7165;52.388;4.928;2023-03-17T16:04:19;11.05;;;8.40;;
14171;SDS011;7165;52.388;4.928;2023-03-17T16:06:45;8.80;;;8.00;;
14171;SDS011;7165;52.388;4.928;2023-03-17T16:09:13;8.38;;;7.63;;
14171;SDS011;7165;52.388;4.928;2023-03-17T16:11:41;10.00;;;8.25;;
14171;SDS011;7165;52.388;4.928;2023-03-17T16:14:08;9.07;;;8.18;;
14171;SDS011;7165;52.388;4.928;2023-03-17T16:16:37;11.10;;;9.80;;
14171;SDS011;7165;52.388;4.928;2023-03-17T16:19:05;8.95;;;7.97;;
14171;SDS011;7165;52.388;4.928;2023-03-17T16:21:34;9.32;;;8.43;;
14171;SDS011;7165;52.388;4.928;2023-03-17T16:24:02;8.75;;;7.90;;
14171;SDS011;7165;52.388;4.928;2023-03-17T16:26:29;9.80;;;8.90;;
14171;SDS011;7165;52.388;4.928;2023-03-17T16:28:55;11.30;;;8.10;;
14171;SDS011;7165;52.388;4.928;2023-03-17T16:41:14;10.40;;;9.23;;
14171;SDS011;7165;52.388;4.928;2023-03-17T16:43:44;10.15;;;9.18;;
14171;SDS011;7165;52.388;4.928;2023-03-17T16:46:15;9.15;;;8.25;;
14171;SDS011;7165;52.388;4.928;2023-03-17T16:48:42;10.70;;;8.85;;
14171;SDS011;7165;52.388;4.928;2023-03-17T16:51:10;10.45;;;8.38;;
14171;SDS011;7165;52.388;4.928;2023-03-17T16:53:37;10.35;;;9.35;;
14171;SDS011;7165;52.388;4.928;2023-03-17T16:56:05;10.48;;;9.13;;
14171;SDS011;7165;52.388;4.928;2023-03-17T16:58:38;10.65;;;8.90;;
14171;SDS011;7165;52.388;4.928;2023-03-17T17:01:08;9.85;;;8.55;;
14171;SDS011;7165;52.388;4.928;2023-03-17T17:03:44;10.38;;;8.40;;
14171;SDS011;7165;52.388;4.928;2023-03-17T17:06:12;12.88;;;9.10;;
14171;SDS011;7165;52.388;4.928;2023-03-17T17:08:40;10.43;;;8.88;;
14171;SDS011;7165;52.388;4.928;2023-03-17T17:11:08;11.70;;;9.25;;
14171;SDS011;7165;52.388;4.928;2023-03-17T17:13:37;13.13;;;9.23;;
14171;SDS011;7165;52.388;4.928;2023-03-17T17:16:04;11.60;;;9.45;;
14171;SDS011;7165;52.388;4.928;2023-03-17T17:18:31;9.80;;;8.80;;
14171;SDS011;7165;52.388;4.928;2023-03-17T17:20:57;9.07;;;8.27;;
14171;SDS011;7165;52.388;4.928;2023-03-17T17:23:26;10.85;;;8.98;;
14171;SDS011;7165;52.388;4.928;2023-03-17T17:25:53;8.90;;;8.00;;
14171;SDS011;7165;52.388;4.928;2023-03-17T17:28:21;13.95;;;10.63;;
14171;SDS011;7165;52.388;4.928;2023-03-17T17:30:50;10.90;;;9.80;;
14171;SDS011;7165;52.388;4.928;2023-03-17T17:33:17;10.48;;;9.55;;
14171;SDS011;7165;52.388;4.928;2023-03-17T17:35:45;12.52;;;9.23;;
14171;SDS011;7165;52.388;4.928;2023-03-17T17:38:17;10.60;;;9.50;;
14171;SDS011;7165;52.388;4.928;2023-03-17T17:40:47;9.98;;;8.98;;
14171;SDS011;7165;52.388;4.928;2023-03-17T17:43:14;13.00;;;8.95;;
14171;SDS011;7165;52.388;4.928;2023-03-17T17:45:43;11.52;;;9.85;;
14171;SDS011;7165;52.388;4.928;2023-03-17T18:22:36;10.13;;;9.10;;
14171;SDS011;7165;52.388;4.928;2023-03-17T18:34:53;8.75;;;7.95;;
14171;SDS011;7165;52.388;4.928;2023-03-17T18:37:20;12.52;;;9.20;;
14171;SDS011;7165;52.388;4.928;2023-03-17T18:39:47;9.43;;;8.52;;
14171;SDS011;7165;52.388;4.928;2023-03-17T18:42:14;8.73;;;7.82;;
14171;SDS011;7165;52.388;4.928;2023-03-17T18:44:40;10.40;;;8.35;;
14171;SDS011;7165;52.388;4.928;2023-03-17T18:47:07;11.43;;;9.43;;
14171;SDS011;7165;52.388;4.928;2023-03-17T18:49:35;11.15;;;8.52;;
14171;SDS011;7165;52.388;4.928;2023-03-17T18:52:02;16.13;;;14.43;;
14171;SDS011;7165;52.388;4.928;2023-03-17T18:54:29;20.38;;;18.33;;
14171;SDS011;7165;52.388;4.928;2023-03-17T18:56:55;18.98;;;17.25;;
14171;SDS011;7165;52.388;4.928;2023-03-17T18:59:22;17.05;;;15.25;;
14171;SDS011;7165;52.388;4.928;2023-03-17T19:01:49;15.15;;;12.13;;
14171;SDS011;7165;52.388;4.928;2023-03-17T19:04:16;14.85;;;11.98;;
14171;SDS011;7165;52.388;4.928;2023-03-17T19:06:44;11.63;;;9.43;;
14171;SDS011;7165;52.388;4.928;2023-03-17T20:37:26;13.85;;;12.32;;
14171;SDS011;7165;52.388;4.928;2023-03-17T20:39:53;15.27;;;12.43;;
14171;SDS011;7165;52.388;4.928;2023-03-17T20:42:21;13.68;;;12.25;;
14171;SDS011;7165;52.388;4.928;2023-03-17T20:44:48;13.88;;;12.35;;
14171;SDS011;7165;52.388;4.928;2023-03-17T20:47:17;18.30;;;16.27;;
14171;SDS011;7165;52.388;4.928;2023-03-17T20:49:46;16.63;;;14.82;;
14171;SDS011;7165;52.388;4.928;2023-03-17T20:52:14;16.73;;;14.95;;
14171;SDS011;7165;52.388;4.928;2023-03-17T20:54:41;18.17;;;14.82;;
14171;SDS011;7165;52.388;4.928;2023-03-17T20:57:10;18.13;;;13.93;;
14171;SDS011;7165;52.388;4.928;2023-03-17T20:59:37;16.60;;;14.05;;
14171;SDS011;7165;52.388;4.928;2023-03-17T21:02:08;15.52;;;13.90;;
14171;SDS011;7165;52.388;4.928;2023-03-17T21:04:38;17.20;;;13.80;;
14171;SDS011;7165;52.388;4.928;2023-03-17T21:07:06;14.95;;;13.48;;
14171;SDS011;7165;52.388;4.928;2023-03-17T21:09:33;15.75;;;14.15;;
14171;SDS011;7165;52.388;4.928;2023-03-17T21:12:00;14.90;;;13.25;;
14171;SDS011;7165;52.388;4.928;2023-03-17T21:14:26;18.70;;;14.00;;
14171;SDS011;7165;52.388;4.928;2023-03-17T21:16:53;16.45;;;14.80;;
14171;SDS011;7165;52.388;4.928;2023-03-17T21:19:20;15.45;;;13.93;;
14171;SDS011;7165;52.388;4.928;2023-03-17T21:21:47;16.55;;;14.30;;
14171;SDS011;7165;52.388;4.928;2023-03-17T21:24:22;16.70;;;14.80;;
14171;SDS011;7165;52.388;4.928;2023-03-17T21:26:50;14.55;;;12.27;;
14171;SDS011;7165;52.388;4.928;2023-03-17T21:29:17;15.20;;;13.35;;
14171;SDS011;7165;52.388;4.928;2023-03-17T21:31:44;13.63;;;12.25;;
14171;SDS011;7165;52.388;4.928;2023-03-17T21:34:10;14.35;;;12.93;;
14171;SDS011;7165;52.388;4.928;2023-03-17T21:36:37;15.95;;;13.55;;
14171;SDS011;7165;52.388;4.928;2023-03-17T21:39:04;16.20;;;13.70;;
14171;SDS011;7165;52.388;4.928;2023-03-17T21:41:32;14.52;;;13.05;;
14171;SDS011;7165;52.388;4.928;2023-03-17T21:44:00;15.02;;;13.43;;
14171;SDS011;7165;52.388;4.928;2023-03-17T21:46:27;16.00;;;13.32;;
14171;SDS011;7165;52.388;4.928;2023-03-17T21:48:55;15.27;;;13.68;;
14171;SDS011;7165;52.388;4.928;2023-03-17T21:51:23;13.18;;;11.95;;
14171;SDS011;7165;52.388;4.928;2023-03-17T21:53:50;13.43;;;12.02;;
14171;SDS011;7165;52.388;4.928;2023-03-17T21:56:18;16.13;;;12.35;;
14171;SDS011;7165;52.388;4.928;2023-03-17T21:58:46;14.23;;;11.95;;
14171;SDS011;7165;52.388;4.928;2023-03-17T22:01:13;12.65;;;11.35;;
14171;SDS011;7165;52.388;4.928;2023-03-17T22:03:41;12.57;;;11.32;;
14171;SDS011;7165;52.388;4.928;2023-03-17T22:06:08;13.25;;;11.82;;
14171;SDS011;7165;52.388;4.928;2023-03-17T22:08:35;13.15;;;11.60;;
14171;SDS011;7165;52.388;4.928;2023-03-17T22:11:05;13.48;;;12.07;;
14171;SDS011;7165;52.388;4.928;2023-03-17T22:13:32;14.10;;;12.15;;
14171;SDS011;7165;52.388;4.928;2023-03-17T22:16:00;14.60;;;12.82;;
14171;SDS011;7165;52.388;4.928;2023-03-17T22:18:28;13.10;;;11.77;;
14171;SDS011;7165;52.388;4.928;2023-03-17T22:20:55;15.55;;;12.43;;
14171;SDS011;7165;52.388;4.928;2023-03-17T22:23:22;12.60;;;11.32;;
14171;SDS011;7165;52.388;4.928;2023-03-17T22:25:49;14.10;;;12.63;;
14171;SDS011;7165;52.388;4.928;2023-03-17T22:28:16;15.35;;;13.43;;
14171;SDS011;7165;52.388;4.928;2023-03-17T22:30:44;16.98;;;12.25;;
14171;SDS011;7165;52.388;4.928;2023-03-17T22:33:12;12.70;;;11.40;;
14171;SDS011;7165;52.388;4.928;2023-03-17T22:35:38;12.80;;;11.57;;
14171;SDS011;7165;52.388;4.928;2023-03-17T22:38:06;13.50;;;12.18;;
14171;SDS011;7165;52.388;4.928;2023-03-17T22:40:33;15.32;;;12.95;;
14171;SDS011;7165;52.388;4.928;2023-03-17T22:43:00;13.63;;;10.43;;
